Pagrindinis puslapis
METAR-TAF:

METAR-TAF

Oro uostai :

Tarptautinis Ženevos oro uostas

Ženeva, Šveicarija

platuma: 46-15N, ilguma: 006-08E, Aukštis: 420 m

Dabartinis oras

Ataskaita buvo paskelbta 23 minutes, ne 22:20 UTC
Vėjas 1 kt nuo kintamojo kryptimis
Temperatūra 12°C
Drėgmė 76%
Slėgis 1022 hPa
Matomumas 10 km arba daugiau
nėra debesų žemiau 1500 m ir nėra kamuolinių lietaus debesų

METAR: LSGG 202220Z AUTO VRB01KT CAVOK 12/08 Q1022 NOSIG

Laikas: 00:43 (22:43 UTC)

Prognozė

Ataskaita buvo paskelbta 2 valandos ir 18 minutes, ne 20:25 UTC
Prognozė galioja nuo 20 metu 21 UTC su 22 metu 03 UTC
Vėjas 5 kt iš Šiaurės Rytų
Matomumas 10 km arba daugiau
nėra debesų žemiau 1500 m ir nėra kamuolinių lietaus debesų
Tapsmas
nuo 21 metu 18 UTC su 21 metu 21 UTC
Matomumas 10 km arba daugiau
Su prošvaistėmis ne aukštis 6000 ft

TAF: LSGG 202025Z 2021/2203 05005KT CAVOK TX23/2115Z TN10/2105Z BECMG 2118/2121 9999 BKN060

Orai ataskaitas ir orų prognozės (METAR, TAF).

turimą stotys yra geltonos ir raudonos taškus žemėlapyje.

Perkelti pele per norėdami pamatyti stoties vardą.

Tada spustelėkite, norėdami matyti oro stebėjimo ir prognozės.

Norėdami pakeisti žemėlapį: spustelėkite ant žalios mygtukų su juodo kryžiaus žemyn,; žalią mygtuką su brūkšneliu, jei norite nutolinti; arba žalių rodyklių gretimoms žemėlapius.


METAR-TAF: